Terminal Aerodrome Forecast
Issued by NWS

Home | Current Version | Previous Version | Text Only | Print | Product List | Glossary On
Versions: 1 2 3 4 5 6 7 8 9 10 11 12 13 14 15 16 17 18 19 20 21 22 23
000
FTUS43 KDLH 260210 AAB
TAFBRD
TAF AMD
KBRD 260210Z 2602/2624 02012KT P6SM -RA BKN011 OVC017
     FM260600 03012G22KT P6SM -RASN OVC008
     FM261000 02013G23KT 4SM -FZRA OVC007
     FM261200 01013G21KT 5SM -SNPL OVC008
     FM261600 01013KT 4SM -SN BR OVC008
     FM262100 01012KT P6SM OVC008=

USA.gov is the U.S. government's official web portal to all federal, state and local government web resources and services.